Time;durP1;ratioP1;P1;durP2;ratioP2;P2;SDS_P1;SDS_P2;PMS_P1;PMS_P2;Temp;Humidity;BMP_temperature;BMP_pressure;BME280_temperature;BME280_humidity;BME280_pressure;Samples;Min_cycle;Max_cycle;Signal;HPM_P1;HPM_P2
2022/01/20 00:00:42;;;;;;;22.20;11.95;;;;;;;-3.50;83.24;97766.64;1654744;85;21494;-59
2022/01/20 00:03:00;;;;;;;28.23;13.98;;;;;;;-3.49;83.15;97755.17;1662555;85;21043;-64
2022/01/20 00:27:15;;;;;;;26.50;13.38;;;;;;;-3.60;82.80;97734.34;1675079;85;20860;-60
2022/01/20 00:30:10;;;;;;;24.87;13.85;;;;;;;-3.61;82.87;97728.83;1664670;85;20952;-61
2022/01/20 00:32:14;;;;;;;28.17;14.33;;;;;;;-3.59;82.80;97720.77;1660329;85;20900;-66
2022/01/20 00:37:29;;;;;;;32.27;14.17;;;;;;;-3.61;82.59;97718.86;1671061;85;20953;-64
2022/01/20 00:39:57;;;;;;;28.62;13.30;;;;;;;-3.62;82.65;97710.69;1654740;85;21478;-60
2022/01/20 00:42:23;;;;;;;25.20;13.60;;;;;;;-3.64;82.58;97699.63;1658956;85;21086;-60
2022/01/20 00:44:50;;;;;;;30.50;14.50;;;;;;;-3.65;82.57;97707.20;1665073;85;21002;-59
2022/01/20 00:47:18;;;;;;;25.27;13.05;;;;;;;-3.67;82.55;97700.03;1654486;85;21728;-59
2022/01/20 00:49:45;;;;;;;22.10;12.05;;;;;;;-3.64;82.53;97693.08;1660095;85;21510;-60
2022/01/20 00:52:12;;;;;;;30.08;15.08;;;;;;;-3.63;82.44;97694.17;1660607;85;20999;-62
2022/01/20 00:54:39;;;;;;;23.20;12.95;;;;;;;-3.61;82.29;97686.13;1667223;85;20960;-62
2022/01/20 00:57:07;;;;;;;25.00;12.75;;;;;;;-3.62;82.24;97672.73;1665885;85;20955;-59
2022/01/20 00:59:34;;;;;;;22.17;12.45;;;;;;;-3.62;82.19;97679.28;1654778;85;21768;-64
2022/01/20 01:02:04;;;;;;;26.73;12.45;;;;;;;-3.64;82.08;97669.03;1661617;85;20899;-65
2022/01/20 01:04:31;;;;;;;24.00;13.05;;;;;;;-3.65;82.02;97656.16;1663448;85;20912;-64
2022/01/20 01:09:24;;;;;;;26.17;13.25;;;;;;;-3.66;82.02;97649.30;1654692;85;20994;-60
2022/01/20 01:11:56;;;;;;;27.30;14.85;;;;;;;-3.66;81.96;97641.45;1671527;85;21084;-61
2022/01/20 01:14:22;;;;;;;25.80;14.10;;;;;;;-3.67;81.88;97638.52;1654320;85;21468;-64
2022/01/20 01:22:21;;;;;;;24.92;13.48;;;;;;;-3.74;81.94;97624.66;1666299;85;21103;-61
2022/01/20 01:24:33;;;;;;;23.80;13.60;;;;;;;-3.76;81.89;97618.84;1652383;85;21126;-59
2022/01/20 01:27:01;;;;;;;29.32;13.90;;;;;;;-3.79;81.93;97610.12;1666544;85;20893;-61
2022/01/20 01:32:16;;;;;;;26.20;12.55;;;;;;;-3.83;82.04;97618.06;1660430;85;20936;-60
2022/01/20 01:34:47;;;;;;;28.00;13.13;;;;;;;-3.81;82.05;97605.57;1674051;85;20917;-66
2022/01/20 01:37:35;;;;;;;25.90;12.35;;;;;;;-3.81;82.04;97612.92;1654122;86;21145;-62
2022/01/20 01:39:39;;;;;;;21.48;12.13;;;;;;;-3.81;82.01;97611.61;1660814;85;21039;-64
2022/01/20 01:42:08;;;;;;;24.90;12.90;;;;;;;-3.80;81.89;97612.42;1667268;85;21590;-64
2022/01/20 01:44:34;;;;;;;24.30;13.68;;;;;;;-3.80;81.93;97611.92;1656314;85;21011;-64
2022/01/20 01:47:02;;;;;;;25.23;12.88;;;;;;;-3.76;81.87;97604.44;1654745;85;20943;-60
2022/01/20 01:49:30;;;;;;;20.95;12.75;;;;;;;-3.73;81.67;97590.95;1666168;85;21111;-61
2022/01/20 01:51:57;;;;;;;25.27;12.60;;;;;;;-3.74;81.71;97594.56;1661076;85;20916;-65
2022/01/20 01:54:24;;;;;;;24.55;13.88;;;;;;;-3.72;81.64;97591.26;1659599;85;20904;-61
2022/01/20 01:56:51;;;;;;;29.23;13.68;;;;;;;-3.71;81.52;97593.66;1661659;85;21025;-59
2022/01/20 01:59:25;;;;;;;22.65;14.30;;;;;;;-3.71;81.38;97588.42;1661110;85;21042;-60
2022/01/20 02:01:54;;;;;;;25.32;13.15;;;;;;;-3.72;81.36;97583.41;1661130;85;21129;-63
2022/01/20 02:04:22;;;;;;;25.02;13.43;;;;;;;-3.73;81.33;97583.09;1661500;85;20944;-63
2022/01/20 02:21:02;;;;;;;25.60;13.93;;;;;;;-3.61;80.75;97551.31;1656462;84;20987;-60
2022/01/20 02:23:29;;;;;;;31.75;14.28;;;;;;;-3.62;80.58;97545.77;1660075;84;21087;-60
2022/01/20 02:25:56;;;;;;;31.42;14.40;;;;;;;-3.65;80.62;97540.98;1659724;85;21020;-62
2022/01/20 02:28:23;;;;;;;25.52;14.25;;;;;;;-3.63;80.48;97548.11;1668475;85;21120;-62
2022/01/20 02:30:49;;;;;;;25.40;13.53;;;;;;;-3.65;80.56;97544.38;1666467;85;21542;-60
2022/01/20 02:33:19;;;;;;;26.17;15.05;;;;;;;-3.65;80.42;97535.75;1654695;85;20949;-62
2022/01/20 02:35:49;;;;;;;25.27;13.20;;;;;;;-3.68;80.41;97536.16;1666171;85;21039;-59
2022/01/20 02:38:32;;;;;;;20.27;12.50;;;;;;;-3.65;80.42;97520.04;1674337;85;21452;-59
2022/01/20 02:46:20;;;;;;;25.97;13.40;;;;;;;-3.60;80.06;97522.30;1666781;85;24720;-63
2022/01/20 02:48:48;;;;;;;24.67;13.25;;;;;;;-3.60;80.02;97522.80;1674614;85;20995;-59
2022/01/20 02:51:15;;;;;;;22.45;13.38;;;;;;;-3.59;80.02;97521.80;1659593;85;20992;-61
2022/01/20 02:53:42;;;;;;;24.12;12.85;;;;;;;-3.56;79.81;97519.54;1654729;85;21692;-64
2022/01/20 02:56:08;;;;;;;23.30;13.18;;;;;;;-3.54;79.71;97526.70;1673361;85;21004;-61
2022/01/20 02:58:35;;;;;;;25.32;13.18;;;;;;;-3.49;79.68;97533.39;1669767;84;20872;-62
2022/01/20 03:01:03;;;;;;;20.80;13.10;;;;;;;-3.47;79.38;97525.34;1664872;85;20956;-61
2022/01/20 03:03:32;;;;;;;25.80;13.83;;;;;;;-3.47;79.36;97524.03;1666532;84;20924;-61
2022/01/20 03:05:58;;;;;;;26.02;14.13;;;;;;;-3.46;79.37;97524.31;1658194;85;21138;-63
2022/01/20 03:08:25;;;;;;;24.87;13.53;;;;;;;-3.42;79.30;97525.51;1670216;85;20916;-62
2022/01/20 03:10:52;;;;;;;24.65;14.03;;;;;;;-3.41;79.21;97519.23;1670448;85;20953;-65
2022/01/20 03:13:19;;;;;;;23.35;12.63;;;;;;;-3.37;79.07;97519.13;1661606;85;21095;-63
2022/01/20 03:15:46;;;;;;;23.22;13.10;;;;;;;-3.35;78.95;97515.78;1667950;84;20873;-60
2022/01/20 03:18:13;;;;;;;23.45;12.03;;;;;;;-3.31;78.86;97516.95;1667320;85;21063;-63
2022/01/20 03:20:40;;;;;;;27.85;13.28;;;;;;;-3.26;78.72;97507.95;1667553;85;20945;-61
2022/01/20 03:23:07;;;;;;;21.95;12.73;;;;;;;-3.22;78.52;97510.42;1654687;85;20923;-64
2022/01/20 03:25:34;;;;;;;19.62;11.50;;;;;;;-3.20;78.17;97514.94;1664479;85;20980;-63
2022/01/20 03:28:01;;;;;;;23.42;13.35;;;;;;;-3.20;78.07;97516.78;1675730;84;20933;-66
2022/01/20 03:30:30;;;;;;;27.58;13.48;;;;;;;-3.22;77.89;97516.97;1671743;85;21149;-58
2022/01/20 03:32:56;;;;;;;21.42;11.70;;;;;;;-3.25;77.82;97508.23;1673245;84;21087;-62
2022/01/20 03:35:23;;;;;;;24.10;13.30;;;;;;;-3.26;77.80;97501.40;1659490;84;21074;-63
2022/01/20 03:37:52;;;;;;;25.43;13.48;;;;;;;-3.33;77.69;97511.13;1665943;85;21455;-60
2022/01/20 03:40:20;;;;;;;22.60;12.53;;;;;;;-3.36;77.71;97504.19;1655872;85;20951;-61
2022/01/20 03:42:48;;;;;;;22.95;13.10;;;;;;;-3.40;77.77;97499.91;1676371;85;21089;-60
2022/01/20 03:45:14;;;;;;;31.30;11.97;;;;;;;-3.41;77.74;97498.82;1666652;85;21478;-59
2022/01/20 03:47:42;;;;;;;21.23;12.18;;;;;;;-3.46;77.69;97491.58;1660699;85;20935;-59
2022/01/20 03:50:59;;;;;;;24.95;12.45;;;;;;;-3.50;77.75;97487.79;1667677;85;20967;-59
2022/01/20 03:52:38;;;;;;;19.60;11.60;;;;;;;-3.54;77.82;97491.36;1671570;85;21008;-65
2022/01/20 03:55:06;;;;;;;19.85;11.57;;;;;;;-3.56;77.81;97488.13;1664183;84;21125;-62
2022/01/20 03:57:37;;;;;;;54.88;23.87;;;;;;;-3.55;77.78;97492.36;1674379;85;20877;-58
2022/01/20 04:00:11;;;;;;;42.23;21.60;;;;;;;-3.56;77.83;97481.58;1673728;84;20996;-63
2022/01/20 04:02:41;;;;;;;23.67;14.45;;;;;;;-3.53;77.86;97485.59;1673570;85;20981;-64
2022/01/20 04:05:26;;;;;;;45.52;22.55;;;;;;;-3.51;77.73;97483.59;1655487;85;21478;-63
2022/01/20 04:07:55;;;;;;;54.83;22.58;;;;;;;-3.45;77.62;97493.19;1664219;85;21155;-59
2022/01/20 04:10:23;;;;;;;25.85;14.40;;;;;;;-3.41;77.55;97495.67;1672797;85;21064;-60
2022/01/20 04:12:50;;;;;;;15.70;9.15;;;;;;;-3.34;77.55;97501.66;1654909;86;21482;-61
2022/01/20 04:15:18;;;;;;;15.05;7.90;;;;;;;-3.29;76.96;97496.58;1666732;85;21026;-59
2022/01/20 04:17:51;;;;;;;12.82;7.67;;;;;;;-3.16;76.82;97494.37;1656438;86;20888;-65
2022/01/20 04:20:16;;;;;;;13.05;6.83;;;;;;;-2.98;75.92;97486.03;1655485;85;21442;-61
2022/01/20 04:22:42;;;;;;;13.20;7.72;;;;;;;-2.80;75.31;97483.41;1666657;85;21352;-60
2022/01/20 04:25:09;;;;;;;13.18;6.65;;;;;;;-2.62;74.93;97498.86;1668824;85;20953;-65
2022/01/20 04:27:36;;;;;;;11.65;6.37;;;;;;;-2.51;73.99;97492.38;1668804;85;20921;-62
2022/01/20 04:30:04;;;;;;;11.05;6.95;;;;;;;-2.38;72.36;97488.81;1667305;85;21427;-61
2022/01/20 04:32:32;;;;;;;11.45;6.67;;;;;;;-2.25;72.22;97517.49;1670108;85;21113;-61
2022/01/20 04:34:59;;;;;;;10.82;6.22;;;;;;;-2.12;72.19;97489.80;1664678;85;21011;-61
2022/01/20 04:37:26;;;;;;;10.90;6.55;;;;;;;-2.04;71.54;97497.34;1661208;85;20911;-64
2022/01/20 04:39:53;;;;;;;12.70;6.83;;;;;;;-1.98;71.34;97510.91;1668499;85;21377;-64
2022/01/20 04:42:21;;;;;;;15.03;7.60;;;;;;;-1.92;71.38;97490.83;1663982;85;20980;-65
2022/01/20 04:45:00;;;;;;;11.08;6.80;;;;;;;-1.91;70.87;97483.25;1670187;85;21719;-63
2022/01/20 04:47:43;;;;;;;10.50;7.53;;;;;;;-1.89;70.92;97488.56;1668601;85;28821;-63
2022/01/20 04:58:17;;;;;;;11.60;7.42;;;;;;;-1.84;71.09;97487.90;1655018;85;21134;-60
2022/01/20 05:00:44;;;;;;;15.72;8.00;;;;;;;-1.86;71.09;97482.85;1672496;84;21385;-64
2022/01/20 05:03:29;;;;;;;11.95;7.00;;;;;;;-1.84;71.34;97488.70;1671579;85;21562;-64
2022/01/20 05:05:57;;;;;;;12.47;7.85;;;;;;;-1.83;71.40;97470.59;1654369;85;21055;-59
2022/01/20 05:08:28;;;;;;;10.38;7.85;;;;;;;-1.82;71.46;97463.02;1670595;85;20876;-62
2022/01/20 05:10:55;;;;;;;14.58;8.05;;;;;;;-1.80;71.67;97463.59;1666506;85;21140;-60
2022/01/20 05:13:32;;;;;;;16.65;8.40;;;;;;;-1.80;71.96;97455.72;1667402;85;20972;-63
2022/01/20 05:15:52;;;;;;;15.98;8.75;;;;;;;-1.76;72.31;97455.55;1653755;85;20960;-61
2022/01/20 05:18:19;;;;;;;15.75;9.38;;;;;;;-1.73;72.72;97452.48;1654811;85;20937;-61
2022/01/20 05:20:46;;;;;;;16.93;8.90;;;;;;;-1.70;73.03;97445.48;1661671;85;21465;-66
2022/01/20 05:23:13;;;;;;;14.00;7.95;;;;;;;-1.67;73.43;97434.50;1674072;85;21122;-63
2022/01/20 05:25:40;;;;;;;14.95;9.05;;;;;;;-1.66;73.62;97442.68;1668662;85;21475;-61
2022/01/20 05:28:07;;;;;;;14.90;8.28;;;;;;;-1.65;73.74;97436.92;1664698;85;20939;-65
2022/01/20 05:30:34;;;;;;;11.48;8.28;;;;;;;-1.65;73.86;97421.94;1661662;85;20943;-61
2022/01/20 05:33:15;;;;;;;13.18;8.00;;;;;;;-1.65;74.00;97425.87;1660307;85;21471;-66
2022/01/20 05:35:42;;;;;;;13.78;8.68;;;;;;;-1.65;74.21;97416.69;1669649;85;21183;-66
2022/01/20 05:38:11;;;;;;;14.63;8.45;;;;;;;-1.62;74.48;97412.81;1669375;85;21596;-60
2022/01/20 05:40:39;;;;;;;15.48;9.05;;;;;;;-1.60;74.69;97412.09;1655275;84;20967;-61
2022/01/20 05:43:06;;;;;;;17.10;9.28;;;;;;;-1.57;74.78;97418.99;1671272;85;21008;-65
2022/01/20 05:45:35;;;;;;;15.35;8.18;;;;;;;-1.53;74.92;97408.84;1661659;85;21042;-60
2022/01/20 05:48:17;;;;;;;12.90;8.53;;;;;;;-1.50;75.06;97402.61;1666609;85;21735;-61
2022/01/20 05:50:59;;;;;;;13.80;8.50;;;;;;;-1.46;75.18;97402.97;1674576;84;20878;-63
2022/01/20 05:53:26;;;;;;;14.73;8.83;;;;;;;-1.44;75.36;97395.12;1666699;85;21455;-60
2022/01/20 05:55:52;;;;;;;14.23;8.58;;;;;;;-1.42;75.53;97402.28;1672768;85;21024;-61
2022/01/20 05:58:20;;;;;;;13.75;8.95;;;;;;;-1.39;75.62;97391.30;1655143;85;20924;-62
2022/01/20 06:00:48;;;;;;;15.32;8.35;;;;;;;-1.35;75.69;97389.53;1666720;85;21676;-60
2022/01/20 06:06:00;;;;;;;17.62;8.33;;;;;;;-1.24;75.85;97395.29;1662042;85;20991;-63
2022/01/20 06:08:28;;;;;;;19.67;8.68;;;;;;;-1.17;75.86;97369.69;1673895;85;21114;-60
2022/01/20 06:10:54;;;;;;;17.35;9.10;;;;;;;-1.10;75.84;97379.56;1657739;85;20958;-62
2022/01/20 06:13:26;;;;;;;13.22;8.40;;;;;;;-1.02;75.85;97379.22;1670286;84;21137;-60
2022/01/20 06:15:53;;;;;;;17.00;8.25;;;;;;;-0.95;75.78;97374.64;1659381;85;21011;-64
2022/01/20 06:18:20;;;;;;;18.40;8.30;;;;;;;-0.92;75.69;97372.88;1661599;85;21439;-60
2022/01/20 06:20:55;;;;;;;14.50;8.63;;;;;;;-0.90;75.65;97360.28;1664803;85;20909;-59
2022/01/20 06:23:24;;;;;;;13.38;8.23;;;;;;;-0.89;75.64;97359.23;1666587;85;20999;-63
2022/01/20 06:25:51;;;;;;;14.87;8.43;;;;;;;-0.87;75.61;97354.03;1654701;85;21730;-63
2022/01/20 06:28:18;;;;;;;17.25;8.75;;;;;;;-0.80;75.70;97361.81;1666504;85;21657;-62
2022/01/20 06:30:45;;;;;;;17.35;8.55;;;;;;;-0.74;75.67;97357.73;1671272;85;21424;-63
2022/01/20 06:33:11;;;;;;;11.73;8.60;;;;;;;-0.67;75.75;97366.79;1666511;85;20960;-62
2022/01/20 06:35:40;;;;;;;17.57;8.88;;;;;;;-0.60;75.65;97369.28;1661755;85;21035;-58
2022/01/20 06:38:07;;;;;;;13.48;8.55;;;;;;;-0.54;75.60;97349.41;1659321;85;21160;-64
2022/01/20 06:40:34;;;;;;;14.85;8.33;;;;;;;-0.49;75.57;97346.06;1661519;85;21054;-65
2022/01/20 06:43:02;;;;;;;18.55;8.65;;;;;;;-0.45;75.44;97330.91;1666269;85;21170;-63
2022/01/20 06:45:29;;;;;;;14.68;8.15;;;;;;;-0.41;75.32;97321.51;1665248;85;21075;-64
2022/01/20 06:47:58;;;;;;;12.90;7.33;;;;;;;-0.38;75.34;97311.83;1668946;84;21043;-59
2022/01/20 06:50:26;;;;;;;15.75;8.70;;;;;;;-0.33;75.29;97307.17;1661336;84;21029;-63
2022/01/20 06:52:54;;;;;;;11.45;7.83;;;;;;;-0.30;75.13;97310.11;1672901;85;20940;-64
2022/01/20 06:55:21;;;;;;;15.53;9.00;;;;;;;-0.27;75.12;97279.38;1658072;85;21007;-62
2022/01/20 06:57:48;;;;;;;19.45;8.95;;;;;;;-0.21;75.03;97284.19;1657865;85;21408;-65
2022/01/20 07:00:20;;;;;;;19.95;8.30;;;;;;;-0.17;74.85;97284.82;1661192;85;21087;-60
2022/01/20 07:02:47;;;;;;;12.93;8.23;;;;;;;-0.12;74.84;97263.81;1653496;85;21687;-61
2022/01/20 07:05:15;;;;;;;15.13;8.20;;;;;;;-0.06;74.62;97254.17;1668363;85;21003;-61
2022/01/20 07:07:42;;;;;;;13.05;8.28;;;;;;;-0.02;74.67;97262.66;1673258;85;20924;-66
2022/01/20 07:10:13;;;;;;;15.78;10.55;;;;;;;0.05;74.57;97261.72;1668348;85;20971;-63
2022/01/20 07:12:42;;;;;;;13.18;7.85;;;;;;;0.09;74.60;97249.66;1667773;85;20997;-63
2022/01/20 07:15:09;;;;;;;12.15;7.62;;;;;;;0.12;74.53;97258.40;1666421;85;21695;-61
2022/01/20 07:17:36;;;;;;;13.58;8.08;;;;;;;0.15;74.49;97244.73;1654747;85;21083;-65
2022/01/20 07:20:05;;;;;;;80.77;50.85;;;;;;;0.18;74.42;97237.67;1677933;85;21119;-60
2022/01/20 07:25:05;;;;;;;30.72;16.07;;;;;;;0.21;74.78;97242.46;1669271;83;20978;-57
2022/01/20 07:27:54;;;;;;;40.08;23.80;;;;;;;0.21;74.81;97249.05;1712401;81;21122;-65
2022/01/20 07:30:21;;;;;;;24.95;18.10;;;;;;;0.17;74.84;97246.59;1696287;81;21085;-60
2022/01/20 07:32:50;;;;;;;27.07;18.87;;;;;;;0.12;74.85;97257.08;1734478;82;20955;-62
2022/01/20 07:35:18;;;;;;;18.92;12.47;;;;;;;0.06;74.88;97244.86;1738056;81;21504;-64
2022/01/20 07:37:48;;;;;;;17.15;12.10;;;;;;;-0.02;74.83;97240.28;1722248;82;20899;-65
2022/01/20 07:40:17;;;;;;;15.50;10.20;;;;;;;-0.05;74.97;97246.02;1714938;82;21335;-64
2022/01/20 07:42:44;;;;;;;18.23;10.15;;;;;;;-0.06;74.80;97241.01;1709790;81;21001;-63
2022/01/20 07:45:12;;;;;;;18.57;10.58;;;;;;;-0.09;74.88;97242.28;1735419;82;21079;-67
2022/01/20 07:47:41;;;;;;;26.90;15.00;;;;;;;-0.11;74.99;97244.88;1736617;82;20952;-63
2022/01/20 07:50:11;;;;;;;21.73;12.28;;;;;;;-0.14;75.00;97240.89;1718021;82;21050;-65
2022/01/20 07:52:38;;;;;;;18.32;11.60;;;;;;;-0.15;75.08;97233.23;1727175;81;21089;-67
2022/01/20 07:55:06;;;;;;;19.07;11.97;;;;;;;-0.16;75.18;97236.38;1727011;81;20920;-69
2022/01/20 07:57:34;;;;;;;18.85;10.75;;;;;;;-0.17;75.25;97230.86;1708699;82;21131;-62
2022/01/20 08:00:02;;;;;;;18.65;11.10;;;;;;;-0.17;75.28;97245.33;1712694;82;21016;-63
2022/01/20 08:02:40;;;;;;;19.25;11.20;;;;;;;-0.15;75.32;97247.72;1653227;85;21432;-67
2022/01/20 08:05:09;;;;;;;15.80;9.17;;;;;;;-0.12;75.44;97245.39;1700292;83;21119;-61
2022/01/20 08:07:41;;;;;;;11.12;8.38;;;;;;;-0.05;75.47;97243.39;1715657;82;21141;-61
2022/01/20 08:10:11;;;;;;;15.70;8.88;;;;;;;0.03;75.23;97246.66;1670151;82;21145;-63
2022/01/20 08:12:39;;;;;;;19.73;9.68;;;;;;;0.09;75.16;97235.98;1704236;82;21027;-64
2022/01/20 08:15:12;;;;;;;14.55;8.95;;;;;;;0.17;75.16;97234.74;1707170;82;20957;-68
2022/01/20 08:17:48;;;;;;;16.45;8.03;;;;;;;0.23;74.97;97229.33;1712690;82;21144;-61
2022/01/20 08:20:20;;;;;;;15.45;8.98;;;;;;;0.33;74.89;97222.09;1723872;82;21098;-61
2022/01/20 08:22:52;;;;;;;13.35;7.60;;;;;;;0.40;74.79;97225.34;1673332;84;21059;-67
2022/01/20 08:25:20;;;;;;;12.68;7.37;;;;;;;0.47;74.76;97227.28;1669570;84;21503;-65
2022/01/20 08:27:49;;;;;;;10.43;7.10;;;;;;;0.53;74.40;97214.42;1707080;82;21527;-65
2022/01/20 08:30:26;;;;;;;12.15;7.80;;;;;;;0.61;74.27;97207.42;1695007;82;21208;-61
2022/01/20 08:33:05;;;;;;;11.63;6.85;;;;;;;0.68;74.18;97201.45;1705301;82;21041;-73
2022/01/20 08:35:43;;;;;;;11.65;7.22;;;;;;;0.74;73.96;97213.63;1695045;82;21529;-63
2022/01/20 08:38:12;;;;;;;15.32;7.92;;;;;;;0.79;73.86;97214.20;1657113;85;21467;-69
2022/01/20 08:40:40;;;;;;;10.30;6.95;;;;;;;0.83;73.86;97217.41;1677697;84;20965;-70
2022/01/20 08:43:08;;;;;;;12.78;7.05;;;;;;;0.87;73.49;97211.95;1688141;83;21887;-68
2022/01/20 08:45:39;;;;;;;12.73;6.87;;;;;;;0.89;73.45;97209.86;1725333;81;22048;-62
2022/01/20 08:48:11;;;;;;;10.32;6.50;;;;;;;0.93;73.18;97213.58;1737675;82;21510;-65
2022/01/20 08:50:41;;;;;;;9.35;6.33;;;;;;;0.97;73.19;97200.17;1687604;84;21050;-65
2022/01/20 08:53:09;;;;;;;8.85;6.40;;;;;;;1.02;73.17;97206.81;1687699;84;21034;-66
2022/01/20 08:55:37;;;;;;;11.95;6.33;;;;;;;1.05;72.99;97201.05;1680405;83;21953;-69
2022/01/20 08:58:06;;;;;;;10.75;6.10;;;;;;;1.10;72.81;97197.16;1704094;82;20985;-66
2022/01/20 09:00:35;;;;;;;10.32;6.35;;;;;;;1.11;72.47;97190.81;1683841;84;21435;-62
2022/01/20 09:03:04;;;;;;;10.90;6.67;;;;;;;1.15;72.45;97204.31;1693079;84;21034;-65
2022/01/20 09:05:32;;;;;;;15.13;6.35;;;;;;;1.19;71.97;97195.66;1698404;83;21092;-68
2022/01/20 09:08:06;;;;;;;12.88;6.70;;;;;;;1.24;72.23;97194.39;1717057;82;21197;-60
2022/01/20 09:10:38;;;;;;;9.35;6.28;;;;;;;1.28;71.98;97180.16;1735969;82;20973;-67
2022/01/20 09:15:50;;;;;;;10.75;6.45;;;;;;;1.30;71.45;97207.89;1668066;84;21158;-61
2022/01/20 09:18:22;;;;;;;10.18;5.92;;;;;;;1.33;71.43;97187.61;1665777;84;21524;-66
2022/01/20 09:20:50;;;;;;;10.28;6.45;;;;;;;1.35;71.11;97171.00;1671453;84;20964;-63
2022/01/20 09:23:18;;;;;;;10.53;6.40;;;;;;;1.34;71.05;97185.22;1669031;84;20976;-62
2022/01/20 09:25:49;;;;;;;10.65;6.50;;;;;;;1.36;71.22;97177.88;1677123;84;21139;-66
2022/01/20 09:28:15;;;;;;;12.30;6.20;;;;;;;1.38;71.19;97173.14;1720478;82;21043;-59
2022/01/20 09:30:45;;;;;;;9.88;6.33;;;;;;;1.42;71.14;97175.26;1719314;82;21450;-62
2022/01/20 09:33:25;;;;;;;10.50;6.28;;;;;;;1.43;70.65;97189.54;1732952;81;22046;-66
2022/01/20 09:35:45;;;;;;;10.93;5.72;;;;;;;1.43;70.64;97164.98;1741761;81;20999;-65
2022/01/20 09:38:17;;;;;;;9.40;6.08;;;;;;;1.42;70.82;97177.38;1709067;83;21019;-65
2022/01/20 09:40:45;;;;;;;9.23;5.83;;;;;;;1.39;70.46;97165.48;1723038;82;21043;-63
2022/01/20 09:43:17;;;;;;;8.50;6.10;;;;;;;1.37;70.60;97164.94;1733475;82;21489;-59
2022/01/20 09:45:44;;;;;;;9.05;5.75;;;;;;;1.36;70.59;97162.05;1733516;82;21327;-58
2022/01/20 09:48:12;;;;;;;10.80;6.85;;;;;;;1.37;70.77;97149.11;1718403;82;20950;-66
2022/01/20 09:50:41;;;;;;;12.80;7.22;;;;;;;1.38;70.83;97156.51;1719585;82;20992;-61
2022/01/20 09:53:11;;;;;;;10.50;6.30;;;;;;;1.36;70.85;97144.90;1674477;83;21036;-62
2022/01/20 09:55:43;;;;;;;9.53;6.60;;;;;;;1.35;71.08;97147.77;1712390;82;21100;-65
2022/01/20 09:58:11;;;;;;;12.75;6.65;;;;;;;1.35;71.17;97141.17;1720567;81;21844;-60
2022/01/20 10:00:42;;;;;;;12.78;7.55;;;;;;;1.36;71.08;97156.77;1727605;82;21099;-58
2022/01/20 10:03:14;;;;;;;13.08;6.90;;;;;;;1.34;71.35;97135.64;1730435;82;20951;-63
2022/01/20 10:05:51;;;;;;;11.43;6.90;;;;;;;1.35;71.15;97138.02;1725713;82;21533;-60
2022/01/20 10:08:26;;;;;;;11.20;7.00;;;;;;;1.33;71.22;97134.84;1734113;82;21114;-68
2022/01/20 10:11:06;;;;;;;9.50;6.75;;;;;;;1.32;71.46;97139.83;1723748;82;21120;-60
2022/01/20 10:13:38;;;;;;;10.28;6.33;;;;;;;1.31;71.53;97139.58;1718828;82;20988;-62
2022/01/20 10:16:12;;;;;;;11.00;6.62;;;;;;;1.26;71.44;97123.70;1721799;82;21478;-61
2022/01/20 10:18:57;;;;;;;11.68;7.70;;;;;;;1.22;71.72;97129.22;1723607;82;21010;-63
2022/01/20 10:21:33;;;;;;;10.28;6.97;;;;;;;1.20;71.99;97128.64;1724328;82;21432;-63
2022/01/20 10:24:08;;;;;;;10.50;6.45;;;;;;;1.22;72.08;97133.69;1733792;82;21115;-60
2022/01/20 10:26:44;;;;;;;10.23;7.15;;;;;;;1.20;71.99;97122.05;1670200;82;20995;-61
2022/01/20 10:29:13;;;;;;;10.18;6.53;;;;;;;1.18;72.11;97122.83;1729908;82;20978;-63
2022/01/20 10:31:52;;;;;;;9.03;6.47;;;;;;;1.16;72.10;97118.84;1717992;82;21185;-62
2022/01/20 10:34:30;;;;;;;10.55;6.55;;;;;;;1.16;72.40;97113.05;1728098;82;21043;-61
2022/01/20 10:36:55;;;;;;;10.45;6.65;;;;;;;1.17;72.29;97117.81;1730371;82;21126;-61
2022/01/20 10:39:38;;;;;;;9.83;6.20;;;;;;;1.20;72.50;97114.14;1724710;82;21372;-63
2022/01/20 10:42:08;;;;;;;10.72;6.12;;;;;;;1.24;72.30;97125.00;1721292;82;20935;-63
2022/01/20 10:44:43;;;;;;;7.97;6.00;;;;;;;1.27;72.20;97113.41;1715286;82;21492;-58
2022/01/20 10:47:27;;;;;;;10.23;6.35;;;;;;;1.28;72.32;97104.45;1661520;85;21174;-63
2022/01/20 10:49:59;;;;;;;8.80;5.78;;;;;;;1.29;72.43;97106.06;1653869;85;21897;-61
2022/01/20 10:52:34;;;;;;;18.37;11.05;;;;;;;1.31;72.39;97095.23;1691990;83;21438;-65
2022/01/20 10:55:01;;;;;;;10.77;6.50;;;;;;;1.30;72.49;97089.16;1725284;82;21669;-59
2022/01/20 10:57:35;;;;;;;8.45;5.87;;;;;;;1.31;72.56;97082.85;1732040;82;21501;-57
2022/01/20 11:00:11;;;;;;;10.72;7.03;;;;;;;1.33;72.57;97080.75;1743138;82;20995;-62
2022/01/20 11:02:56;;;;;;;8.98;6.28;;;;;;;1.34;72.73;97077.05;1704555;82;21461;-62
2022/01/20 11:05:27;;;;;;;11.48;6.10;;;;;;;1.36;72.60;97090.00;1735376;81;21478;-61
2022/01/20 11:07:57;;;;;;;9.58;6.50;;;;;;;1.36;72.79;97076.81;1726440;82;20938;-63
2022/01/20 11:10:25;;;;;;;10.30;6.35;;;;;;;1.34;72.72;97072.31;1736949;82;20947;-64
2022/01/20 11:13:02;;;;;;;11.78;6.05;;;;;;;1.34;73.02;97070.45;1725621;82;21116;-58
2022/01/20 11:15:33;;;;;;;9.88;5.95;;;;;;;1.37;73.02;97071.79;1722578;82;21487;-59
2022/01/20 11:18:03;;;;;;;8.85;5.55;;;;;;;1.40;73.00;97068.66;1729019;82;20940;-62
2022/01/20 11:20:44;;;;;;;10.20;6.28;;;;;;;1.42;72.98;97059.95;1729143;82;20995;-58
2022/01/20 11:23:13;;;;;;;9.15;6.60;;;;;;;1.41;72.91;97061.02;1729906;82;20938;-59
2022/01/20 11:26:04;;;;;;;11.10;6.20;;;;;;;1.44;73.04;97070.27;1727002;82;21618;-58
2022/01/20 11:29:00;;;;;;;12.07;6.12;;;;;;;1.44;73.03;97065.77;1735700;82;21227;-60
2022/01/20 11:31:48;;;;;;;10.88;6.70;;;;;;;1.43;72.77;97073.95;1737780;82;21519;-59
2022/01/20 11:34:20;;;;;;;9.05;6.12;;;;;;;1.45;72.75;97073.16;1729559;82;21396;-63
2022/01/20 11:36:50;;;;;;;14.50;6.30;;;;;;;1.48;72.60;97066.06;1732256;82;21415;-58
2022/01/20 11:39:24;;;;;;;10.03;6.47;;;;;;;1.48;72.33;97047.59;1730673;82;21523;-60
2022/01/20 11:41:53;;;;;;;8.78;6.33;;;;;;;1.47;72.59;97049.95;1730132;82;21568;-63
2022/01/20 11:44:27;;;;;;;9.83;6.50;;;;;;;1.47;72.80;97040.20;1736154;82;21046;-62
2022/01/20 11:47:07;;;;;;;10.63;6.97;;;;;;;1.48;72.86;97035.20;1724393;82;21486;-61
2022/01/20 11:49:37;;;;;;;9.68;6.70;;;;;;;1.44;72.93;97034.65;1736576;82;21003;-58
2022/01/20 11:52:07;;;;;;;13.58;7.33;;;;;;;1.40;73.17;97017.20;1736588;82;21423;-62
2022/01/20 11:54:40;;;;;;;13.90;7.90;;;;;;;1.37;73.26;97044.88;1732470;82;21086;-62
2022/01/20 11:57:15;;;;;;;12.28;7.20;;;;;;;1.38;73.50;97032.49;1732208;82;21439;-59
2022/01/20 11:59:48;;;;;;;12.18;7.12;;;;;;;1.37;73.69;97030.38;1734204;82;21026;-63
2022/01/20 12:02:37;;;;;;;12.05;7.30;;;;;;;1.36;73.81;97035.39;1736760;82;20888;-60
2022/01/20 12:05:28;;;;;;;12.88;6.97;;;;;;;1.36;73.99;97035.91;1721281;82;21373;-60
2022/01/20 12:08:15;;;;;;;;;;;;;;;1.33;74.29;97019.27;1688053;83;21609;-62
2022/01/20 12:11:12;;;;;;;13.55;7.78;;;;;;;1.33;74.49;97017.42;1726985;82;20406;-64
2022/01/20 12:13:47;;;;;;;16.00;8.17;;;;;;;1.31;74.79;97023.48;1712932;82;21106;-63
2022/01/20 12:16:20;;;;;;;11.25;7.47;;;;;;;1.31;74.81;97014.25;1717079;82;21010;-60
2022/01/20 12:18:53;;;;;;;12.93;7.85;;;;;;;1.31;75.00;97032.72;1724252;82;20967;-59
2022/01/20 12:21:20;;;;;;;13.60;8.15;;;;;;;1.32;75.07;96993.40;1714879;82;21199;-64
2022/01/20 12:23:48;;;;;;;14.98;9.10;;;;;;;1.32;75.22;96986.00;1707567;82;21026;-62
2022/01/20 12:26:15;;;;;;;13.30;8.48;;;;;;;1.32;75.38;96996.03;1695077;84;21106;-62
2022/01/20 12:28:46;;;;;;;53.00;30.62;;;;;;;1.31;75.60;96995.78;1702400;83;21130;-59
2022/01/20 12:31:18;;;;;;;19.52;11.30;;;;;;;1.30;75.85;96983.63;1671768;83;20912;-60
2022/01/20 12:33:46;;;;;;;18.55;9.98;;;;;;;1.29;76.15;96985.22;1674796;85;21558;-59
2022/01/20 12:36:14;;;;;;;12.07;7.67;;;;;;;1.25;76.43;97000.74;1666467;85;21034;-61
2022/01/20 12:38:41;;;;;;;30.77;21.70;;;;;;;1.22;76.44;96989.41;1666541;85;20936;-63
2022/01/20 12:41:15;;;;;;;13.10;9.20;;;;;;;1.19;76.58;96973.27;1660506;85;20889;-61
2022/01/20 12:43:45;;;;;;;12.88;8.95;;;;;;;1.18;76.73;96974.31;1638661;85;20991;-65
2022/01/20 12:46:16;;;;;;;17.25;11.63;;;;;;;1.19;76.77;96966.69;1704209;82;21555;-60
2022/01/20 12:49:06;;;;;;;12.80;8.68;;;;;;;1.21;76.79;96969.34;1716952;82;20944;-65
2022/01/20 12:51:40;;;;;;;13.10;8.48;;;;;;;1.21;76.65;96977.25;1703427;82;21031;-63